Flight Track Log - Related Links

Times and Time Zones

All times are in EDT time to prevent confusion due to time zone crossing. See the N6198F flight status page for this flight to view local times or setup timezone preferences in your user account.

Time Position Orientation Groundspeed Altitude Reporting Facility
EDT Latitude Longitude Course Direction KTS MPH feet Rate Location/Type
Sun 12:32:39 PM 33.8550 -85.0444 276° West 113 130 4,400  Level Atlanta Center
Sun 12:33:39 PM 33.8586 -85.0844 276° West 113 130 4,400  Level Atlanta Center
Sun 12:34:39 PM 33.8625 -85.1194 278° West 113 130 4,400 50 Level Atlanta Center
Sun 12:35:39 PM 33.8706 -85.1547 285° West 113 130 4,500  Climbing Atlanta Center
Sun 12:36:39 PM 33.8744 -85.1897 278° West 108 124 4,400  Descending Atlanta Center
Sun 12:37:39 PM 33.8761 -85.2272 273° West 108 124 4,500  Climbing Atlanta Center
Sun 12:38:39 PM 33.8819 -85.2650 281° West 103 119 4,400 -50 Descending Atlanta Center
Sun 12:39:39 PM 33.8881 -85.3000 282° West 103 119 4,400  Level Atlanta Center
Sun 12:40:39 PM 33.8917 -85.3350 277° West 103 119 4,400  Level Atlanta Center
Sun 12:41:39 PM 33.8936 -85.3728 274° West 108 124 4,400  Level Atlanta Center
Sun 12:42:39 PM 33.8994 -85.4103 281° West 113 130 4,400 50 Level Atlanta Center
Sun 12:43:39 PM 33.9031 -85.4506 276° West 118 136 4,500  Climbing Atlanta Center
Sun 12:44:39 PM 33.9047 -85.4881 273° West 123 142 4,400 -50 Descending Atlanta Center
Sun 12:45:39 PM 33.9128 -85.5231 286° West 123 142 4,400  Level Atlanta Center
Sun 12:46:39 PM 33.9164 -85.5608 277° West 123 142 4,400 -50 Level Atlanta Center
Sun 12:47:39 PM 33.9242 -85.5961 285° West 118 136 4,300  Descending Atlanta Center
Sun 12:48:39 PM 33.9239 -85.6336 269° West 118 136 4,400 50 Climbing Atlanta Center
Sun 12:49:39 PM 33.9275 -85.6686 277° West 118 136 4,400  Level Atlanta Center
Sun 12:50:39 PM 33.9311 -85.7036 277° West 118 136 4,400 50 Level Atlanta Center
Sun 12:51:39 PM 33.9453 -85.7367 297° West 107 123 4,500 50 Climbing Atlanta Center
Sun 12:52:39 PM 33.9492 -85.7717 278° West 107 123 4,500 -150 Level Atlanta Center
Sun 12:53:39 PM 33.9547 -85.8044 282° West 107 123 4,200 -350 Descending Atlanta Center
Sun 12:54:39 PM 33.9542 -85.8444 269° West 114 131 3,800 150 Descending Atlanta Center
Sun 12:55:39 PM 33.9619 -85.8847 283° West 114 131 4,500 350 Climbing Atlanta Center
Sun 12:56:39 PM 33.9656 -85.9222 277° West 114 131 4,500  Level Atlanta Center
Sun 12:57:39 PM 33.9694 -85.9450 282° West 114 131 4,500  Level Atlanta Center

Login

Don't have an account? Register now (free) for customized features, flight alerts, and more!